N21SM MYBC-MKJP
Flight info
| Callsign | N21SM |
|---|---|
| Flight time | 1h 51m |
| Altitude | 27000 |
| Route | IFR ZQA B503 ENAMO/N0283F230 R625 NEFTU A301 MLY KEYNO3 |
| Aircraft | SF50/L-SDGRWY/L |
Departure
| Time | 2026-04-29 13:20 |
|---|---|
| Airport | Chub Cay Airport (MYBC) |
Arrival
| Time | 2026-04-29 15:11 |
|---|---|
| Airport | Norman Manley International Airport (MKJP) |
| Time | Latitude | Longitude | Altitude | Speed | Heading |
|---|---|---|---|---|---|
| 2026-04-29 12:54 | 25.41868 | -77.88559 | 6 ft | 0 kts | 198° |
| 2026-04-29 13:13 | 25.41856 | -77.88565 | 6 ft | 3 kts | 241° |
| 2026-04-29 13:13 | 25.41857 | -77.88573 | 6 ft | 0 kts | 263° |
| 2026-04-29 13:13 | 25.41851 | -77.88642 | 6 ft | 19 kts | 279° |
| 2026-04-29 13:14 | 25.41879 | -77.88748 | 8 ft | 0 kts | 287° |
| 2026-04-29 13:14 | 25.41881 | -77.88755 | 8 ft | 4 kts | 291° |
| 2026-04-29 13:14 | 25.41887 | -77.88788 | 8 ft | 2 kts | 128° |
| 2026-04-29 13:14 | 25.41886 | -77.88786 | 8 ft | 0 kts | 98° |
| 2026-04-29 13:19 | 25.41880 | -77.88755 | 8 ft | 19 kts | 103° |
| 2026-04-29 13:19 | 25.41798 | -77.88415 | 6 ft | 76 kts | 105° |
| 2026-04-29 13:19 | 25.41620 | -77.87689 | 171 ft | 109 kts | 106° |
| 2026-04-29 13:20 | 25.41378 | -77.86778 | 460 ft | 141 kts | 108° |
| 2026-04-29 13:20 | 25.41062 | -77.85650 | 798 ft | 164 kts | 107° |
| 2026-04-29 13:20 | 25.40719 | -77.84383 | 1200 ft | 173 kts | 109° |
| 2026-04-29 13:20 | 25.40308 | -77.83091 | 1610 ft | 184 kts | 110° |
| 2026-04-29 13:21 | 25.39866 | -77.81748 | 1905 ft | 194 kts | 110° |
| 2026-04-29 13:21 | 25.39400 | -77.80313 | 1896 ft | 197 kts | 110° |
| 2026-04-29 13:21 | 25.38850 | -77.79013 | 1876 ft | 179 kts | 129° |
| 2026-04-29 13:21 | 25.37927 | -77.78186 | 1815 ft | 167 kts | 143° |
| 2026-04-29 13:22 | 25.37002 | -77.77436 | 1757 ft | 165 kts | 140° |
| 2026-04-29 13:22 | 25.36094 | -77.76595 | 1750 ft | 184 kts | 138° |
| 2026-04-29 13:22 | 25.35092 | -77.75635 | 1807 ft | 189 kts | 138° |
| 2026-04-29 13:22 | 25.34132 | -77.74717 | 1853 ft | 175 kts | 138° |
| 2026-04-29 13:23 | 25.33238 | -77.73870 | 1840 ft | 166 kts | 138° |
| 2026-04-29 13:23 | 25.32366 | -77.73032 | 1803 ft | 165 kts | 137° |
| 2026-04-29 13:23 | 25.31498 | -77.72201 | 1806 ft | 164 kts | 137° |
| 2026-04-29 13:23 | 25.30632 | -77.71378 | 1794 ft | 164 kts | 137° |
| 2026-04-29 13:24 | 25.29767 | -77.70548 | 1777 ft | 164 kts | 137° |
| 2026-04-29 13:24 | 25.29195 | -77.70002 | 1778 ft | 164 kts | 138° |
| 2026-04-29 13:24 | 25.28331 | -77.69179 | 1757 ft | 164 kts | 138° |
| 2026-04-29 13:24 | 25.27476 | -77.68362 | 1907 ft | 151 kts | 139° |
| 2026-04-29 13:25 | 25.26795 | -77.67714 | 2526 ft | 116 kts | 137° |
| 2026-04-29 13:25 | 25.25524 | -77.66497 | 3489 ft | 124 kts | 137° |
| 2026-04-29 13:25 | 25.24866 | -77.65870 | 3968 ft | 126 kts | 138° |
| 2026-04-29 13:26 | 25.24200 | -77.65234 | 4459 ft | 127 kts | 138° |
| 2026-04-29 13:26 | 25.23528 | -77.64597 | 4948 ft | 128 kts | 138° |
| 2026-04-29 13:26 | 25.22840 | -77.63941 | 5360 ft | 134 kts | 139° |
| 2026-04-29 13:26 | 25.22113 | -77.63250 | 5766 ft | 141 kts | 139° |
| 2026-04-29 13:27 | 25.21348 | -77.62525 | 6175 ft | 148 kts | 139° |
| 2026-04-29 13:27 | 25.20550 | -77.61764 | 6586 ft | 155 kts | 139° |
| 2026-04-29 13:27 | 25.19719 | -77.60972 | 6964 ft | 161 kts | 139° |
| 2026-04-29 13:27 | 25.18856 | -77.60147 | 7355 ft | 167 kts | 139° |
| 2026-04-29 13:28 | 25.17965 | -77.59298 | 7745 ft | 172 kts | 139° |
| 2026-04-29 13:28 | 25.17050 | -77.58425 | 8142 ft | 176 kts | 139° |
| 2026-04-29 13:28 | 25.16113 | -77.57532 | 8540 ft | 180 kts | 139° |
| 2026-04-29 13:28 | 25.15158 | -77.56623 | 8943 ft | 183 kts | 138° |
| 2026-04-29 13:29 | 25.14187 | -77.55700 | 9351 ft | 185 kts | 138° |
| 2026-04-29 13:29 | 25.13205 | -77.54763 | 9759 ft | 188 kts | 138° |
| 2026-04-29 13:29 | 25.12213 | -77.53819 | 10151 ft | 189 kts | 138° |
| 2026-04-29 13:29 | 25.11214 | -77.52868 | 10524 ft | 190 kts | 138° |
| 2026-04-29 13:30 | 25.10208 | -77.51913 | 10904 ft | 191 kts | 138° |
| 2026-04-29 13:30 | 25.09198 | -77.50953 | 11271 ft | 192 kts | 138° |
| 2026-04-29 13:30 | 25.08201 | -77.50006 | 11649 ft | 192 kts | 138° |
| 2026-04-29 13:30 | 25.07176 | -77.49034 | 12034 ft | 192 kts | 138° |
| 2026-04-29 13:31 | 25.06179 | -77.48086 | 12426 ft | 192 kts | 137° |
| 2026-04-29 13:31 | 25.05168 | -77.47128 | 12815 ft | 192 kts | 137° |
| 2026-04-29 13:31 | 25.04152 | -77.46165 | 13214 ft | 193 kts | 138° |
| 2026-04-29 13:31 | 25.03123 | -77.45210 | 13621 ft | 194 kts | 143° |
| 2026-04-29 13:32 | 25.01884 | -77.44641 | 14015 ft | 194 kts | 169° |
| 2026-04-29 13:32 | 25.00540 | -77.44534 | 14354 ft | 195 kts | 178° |
| 2026-04-29 13:32 | 24.99160 | -77.44453 | 14589 ft | 202 kts | 176° |
| 2026-04-29 13:32 | 24.97739 | -77.44355 | 14826 ft | 208 kts | 176° |
| 2026-04-29 13:33 | 24.96274 | -77.44267 | 15065 ft | 213 kts | 177° |
| 2026-04-29 13:33 | 24.94776 | -77.44177 | 15306 ft | 218 kts | 177° |
| 2026-04-29 13:33 | 24.93253 | -77.44085 | 15549 ft | 221 kts | 177° |
| 2026-04-29 13:33 | 24.91714 | -77.43993 | 15788 ft | 223 kts | 177° |
| 2026-04-29 13:34 | 24.90162 | -77.43899 | 16026 ft | 224 kts | 176° |
| 2026-04-29 13:34 | 24.88605 | -77.43804 | 16274 ft | 225 kts | 177° |
| 2026-04-29 13:34 | 24.87041 | -77.43711 | 16516 ft | 226 kts | 177° |
| 2026-04-29 13:34 | 24.85469 | -77.43616 | 16760 ft | 227 kts | 177° |
| 2026-04-29 13:35 | 24.83891 | -77.43521 | 17009 ft | 228 kts | 177° |
| 2026-04-29 13:35 | 24.82305 | -77.43425 | 17261 ft | 229 kts | 176° |
| 2026-04-29 13:35 | 24.80711 | -77.43329 | 17515 ft | 230 kts | 177° |
| 2026-04-29 13:35 | 24.79111 | -77.43235 | 17777 ft | 230 kts | 177° |
| 2026-04-29 13:36 | 24.77529 | -77.43140 | 18238 ft | 225 kts | 176° |
| 2026-04-29 13:36 | 24.75982 | -77.43049 | 18653 ft | 220 kts | 177° |
| 2026-04-29 13:36 | 24.74472 | -77.42958 | 19059 ft | 214 kts | 176° |
| 2026-04-29 13:36 | 24.73003 | -77.42871 | 19455 ft | 208 kts | 177° |
| 2026-04-29 13:37 | 24.71580 | -77.42787 | 19861 ft | 201 kts | 177° |
| 2026-04-29 13:37 | 24.70227 | -77.42705 | 20265 ft | 194 kts | 177° |
| 2026-04-29 13:37 | 24.68911 | -77.42629 | 20676 ft | 186 kts | 177° |
| 2026-04-29 13:37 | 24.67649 | -77.42553 | 21087 ft | 177 kts | 177° |
| 2026-04-29 13:38 | 24.66432 | -77.42483 | 21508 ft | 168 kts | 177° |
| 2026-04-29 13:38 | 24.65315 | -77.42417 | 21913 ft | 159 kts | 177° |
| 2026-04-29 13:38 | 24.64224 | -77.42355 | 22231 ft | 154 kts | 177° |
| 2026-04-29 13:38 | 24.63177 | -77.42290 | 22554 ft | 147 kts | 177° |
| 2026-04-29 13:39 | 24.62151 | -77.42231 | 22775 ft | 149 kts | 177° |
| 2026-04-29 13:39 | 24.61105 | -77.42164 | 22966 ft | 154 kts | 177° |
| 2026-04-29 13:39 | 24.59980 | -77.42097 | 23012 ft | 170 kts | 177° |
| 2026-04-29 13:39 | 24.58749 | -77.42019 | 23072 ft | 185 kts | 177° |
| 2026-04-29 13:40 | 24.57416 | -77.41940 | 23112 ft | 200 kts | 177° |
| 2026-04-29 13:40 | 24.55976 | -77.41851 | 23127 ft | 215 kts | 177° |
| 2026-04-29 13:40 | 24.54427 | -77.41760 | 23137 ft | 232 kts | 177° |
| 2026-04-29 13:40 | 24.52758 | -77.41659 | 23139 ft | 249 kts | 177° |
| 2026-04-29 13:41 | 24.50973 | -77.41553 | 23138 ft | 264 kts | 177° |
| 2026-04-29 13:41 | 24.49086 | -77.41440 | 23135 ft | 277 kts | 177° |
| 2026-04-29 13:41 | 24.47120 | -77.41322 | 23136 ft | 288 kts | 177° |
| 2026-04-29 13:41 | 24.45089 | -77.41202 | 23140 ft | 297 kts | 177° |
| 2026-04-29 13:42 | 24.43001 | -77.41077 | 23134 ft | 304 kts | 177° |
| 2026-04-29 13:42 | 24.40875 | -77.40952 | 23134 ft | 309 kts | 177° |
| 2026-04-29 13:42 | 24.38711 | -77.40823 | 23139 ft | 314 kts | 177° |
| 2026-04-29 13:42 | 24.36520 | -77.40693 | 23138 ft | 317 kts | 177° |
| 2026-04-29 13:43 | 24.34302 | -77.40562 | 23140 ft | 321 kts | 177° |
| 2026-04-29 13:43 | 24.32065 | -77.40429 | 23139 ft | 324 kts | 177° |
| 2026-04-29 13:43 | 24.29920 | -77.40302 | 23137 ft | 327 kts | 177° |
| 2026-04-29 13:43 | 24.27806 | -77.40176 | 23137 ft | 330 kts | 177° |
| 2026-04-29 13:44 | 24.26091 | -77.40075 | 23135 ft | 332 kts | 177° |
| 2026-04-29 13:44 | 24.24132 | -77.39958 | 23137 ft | 334 kts | 177° |
| 2026-04-29 13:44 | 24.22535 | -77.39864 | 23135 ft | 335 kts | 177° |
| 2026-04-29 13:44 | 24.21298 | -77.39790 | 23132 ft | 336 kts | 177° |
| 2026-04-29 13:45 | 24.19338 | -77.39674 | 23134 ft | 338 kts | 177° |
| 2026-04-29 13:45 | 24.17236 | -77.39550 | 23137 ft | 340 kts | 177° |
| 2026-04-29 13:45 | 24.15341 | -77.39437 | 23132 ft | 341 kts | 177° |
| 2026-04-29 13:45 | 24.13826 | -77.39357 | 23130 ft | 342 kts | 178° |
| 2026-04-29 13:46 | 24.12716 | -77.39309 | 23133 ft | 343 kts | 178° |
| 2026-04-29 13:46 | 24.10607 | -77.39225 | 23132 ft | 344 kts | 178° |
| 2026-04-29 13:46 | 24.09229 | -77.39162 | 23132 ft | 345 kts | 178° |
| 2026-04-29 13:46 | 24.07477 | -77.39074 | 23127 ft | 346 kts | 177° |
| 2026-04-29 13:47 | 24.06159 | -77.39007 | 23127 ft | 346 kts | 178° |
| 2026-04-29 13:47 | 24.05149 | -77.38957 | 23130 ft | 347 kts | 178° |
| 2026-04-29 13:47 | 24.02707 | -77.38826 | 23128 ft | 347 kts | 177° |
| 2026-04-29 13:47 | 24.00740 | -77.38691 | 23132 ft | 347 kts | 176° |
| 2026-04-29 13:48 | 23.98889 | -77.38565 | 23128 ft | 346 kts | 177° |
| 2026-04-29 13:48 | 23.96666 | -77.38431 | 23126 ft | 345 kts | 177° |
| 2026-04-29 13:48 | 23.94584 | -77.38311 | 23125 ft | 343 kts | 177° |
| 2026-04-29 13:48 | 23.92400 | -77.38176 | 23123 ft | 342 kts | 177° |
| 2026-04-29 13:49 | 23.90023 | -77.38026 | 23123 ft | 340 kts | 177° |
| 2026-04-29 13:49 | 23.87664 | -77.37882 | 23122 ft | 338 kts | 177° |
| 2026-04-29 13:49 | 23.85324 | -77.37739 | 23119 ft | 336 kts | 177° |
| 2026-04-29 13:49 | 23.83030 | -77.37598 | 23117 ft | 334 kts | 177° |
| 2026-04-29 13:50 | 23.80710 | -77.37457 | 23115 ft | 333 kts | 177° |
| 2026-04-29 13:50 | 23.78414 | -77.37317 | 23116 ft | 331 kts | 177° |
| 2026-04-29 13:50 | 23.76120 | -77.37176 | 23114 ft | 330 kts | 177° |
| 2026-04-29 13:50 | 23.74380 | -77.37070 | 23112 ft | 329 kts | 177° |
| 2026-04-29 13:51 | 23.71989 | -77.36925 | 23112 ft | 328 kts | 177° |
| 2026-04-29 13:51 | 23.69709 | -77.36785 | 23109 ft | 327 kts | 177° |
| 2026-04-29 13:51 | 23.67434 | -77.36646 | 23114 ft | 326 kts | 177° |
| 2026-04-29 13:51 | 23.65201 | -77.36510 | 23111 ft | 326 kts | 177° |
| 2026-04-29 13:52 | 23.62902 | -77.36370 | 23114 ft | 325 kts | 177° |
| 2026-04-29 13:52 | 23.60741 | -77.36238 | 23111 ft | 325 kts | 177° |
| 2026-04-29 13:52 | 23.58502 | -77.36102 | 23109 ft | 324 kts | 177° |
| 2026-04-29 13:52 | 23.56314 | -77.35972 | 23105 ft | 323 kts | 178° |
| 2026-04-29 13:53 | 23.54300 | -77.36002 | 23109 ft | 322 kts | 182° |
| 2026-04-29 13:53 | 23.52426 | -77.36076 | 23113 ft | 321 kts | 183° |
| 2026-04-29 13:53 | 23.50775 | -77.36134 | 23109 ft | 321 kts | 182° |
| 2026-04-29 13:53 | 23.48890 | -77.36186 | 23107 ft | 321 kts | 182° |
| 2026-04-29 13:54 | 23.47434 | -77.36224 | 23110 ft | 321 kts | 182° |
| 2026-04-29 13:54 | 23.45979 | -77.36267 | 23108 ft | 321 kts | 182° |
| 2026-04-29 13:54 | 23.44349 | -77.36318 | 23105 ft | 321 kts | 182° |
| 2026-04-29 13:54 | 23.42617 | -77.36371 | 23105 ft | 321 kts | 182° |
| 2026-04-29 13:55 | 23.41678 | -77.36399 | 23105 ft | 321 kts | 182° |
| 2026-04-29 13:55 | 23.40381 | -77.36436 | 23109 ft | 321 kts | 182° |
| 2026-04-29 13:55 | 23.39178 | -77.36472 | 23106 ft | 321 kts | 182° |
| 2026-04-29 13:55 | 23.37569 | -77.36521 | 23105 ft | 321 kts | 182° |
| 2026-04-29 13:56 | 23.35349 | -77.36587 | 23104 ft | 321 kts | 182° |
| 2026-04-29 13:56 | 23.33119 | -77.36653 | 23109 ft | 321 kts | 182° |
| 2026-04-29 13:56 | 23.30882 | -77.36721 | 23104 ft | 321 kts | 182° |
| 2026-04-29 13:56 | 23.28925 | -77.36779 | 23103 ft | 321 kts | 182° |
| 2026-04-29 13:57 | 23.27478 | -77.36822 | 23106 ft | 321 kts | 182° |
| 2026-04-29 13:57 | 23.25442 | -77.36883 | 23102 ft | 321 kts | 182° |
| 2026-04-29 13:57 | 23.23206 | -77.36949 | 23107 ft | 321 kts | 182° |
| 2026-04-29 13:57 | 23.21696 | -77.36995 | 23105 ft | 321 kts | 182° |
| 2026-04-29 13:58 | 23.18742 | -77.37083 | 23107 ft | 321 kts | 182° |
| 2026-04-29 13:58 | 23.16507 | -77.37151 | 23105 ft | 321 kts | 182° |
| 2026-04-29 13:58 | 23.14274 | -77.37218 | 23108 ft | 321 kts | 182° |
| 2026-04-29 13:58 | 23.12043 | -77.37284 | 23103 ft | 321 kts | 182° |
| 2026-04-29 13:59 | 23.09802 | -77.37352 | 23102 ft | 321 kts | 182° |
| 2026-04-29 13:59 | 23.08893 | -77.37380 | 23109 ft | 321 kts | 182° |
| 2026-04-29 13:59 | 23.08176 | -77.37401 | 23105 ft | 321 kts | 182° |
| 2026-04-29 13:59 | 23.07577 | -77.37418 | 23110 ft | 321 kts | 182° |
| 2026-04-29 14:00 | 23.06879 | -77.37439 | 23105 ft | 321 kts | 182° |
| 2026-04-29 14:00 | 23.05237 | -77.37487 | 23098 ft | 321 kts | 182° |
| 2026-04-29 14:00 | 23.04069 | -77.37520 | 23106 ft | 321 kts | 182° |
| 2026-04-29 14:00 | 23.02024 | -77.37580 | 23107 ft | 321 kts | 182° |
| 2026-04-29 14:01 | 23.00116 | -77.37637 | 23113 ft | 321 kts | 182° |
| 2026-04-29 14:01 | 22.98330 | -77.37689 | 23112 ft | 321 kts | 182° |
| 2026-04-29 14:01 | 22.96097 | -77.37754 | 23116 ft | 321 kts | 182° |
| 2026-04-29 14:01 | 22.93861 | -77.37820 | 23114 ft | 321 kts | 182° |
| 2026-04-29 14:02 | 22.91634 | -77.37884 | 23109 ft | 321 kts | 182° |
| 2026-04-29 14:02 | 22.89393 | -77.37950 | 23102 ft | 321 kts | 182° |
| 2026-04-29 14:02 | 22.87202 | -77.38014 | 23102 ft | 321 kts | 183° |
| 2026-04-29 14:02 | 22.84973 | -77.38078 | 23111 ft | 321 kts | 182° |
| 2026-04-29 14:03 | 22.82737 | -77.38142 | 23102 ft | 321 kts | 183° |
| 2026-04-29 14:03 | 22.80519 | -77.38207 | 23106 ft | 321 kts | 183° |
| 2026-04-29 14:03 | 22.78266 | -77.38272 | 23105 ft | 321 kts | 183° |
| 2026-04-29 14:03 | 22.76042 | -77.38336 | 23107 ft | 321 kts | 183° |
| 2026-04-29 14:04 | 22.74043 | -77.38395 | 23106 ft | 321 kts | 183° |
| 2026-04-29 14:04 | 22.72388 | -77.38442 | 23103 ft | 321 kts | 183° |
| 2026-04-29 14:04 | 22.70153 | -77.38507 | 23098 ft | 321 kts | 183° |
| 2026-04-29 14:04 | 22.67954 | -77.38571 | 23098 ft | 321 kts | 183° |
| 2026-04-29 14:05 | 22.66027 | -77.38626 | 23099 ft | 320 kts | 183° |
| 2026-04-29 14:05 | 22.63833 | -77.38690 | 23105 ft | 320 kts | 183° |
| 2026-04-29 14:05 | 22.61800 | -77.38748 | 23095 ft | 320 kts | 183° |
| 2026-04-29 14:05 | 22.60039 | -77.38799 | 23095 ft | 320 kts | 183° |
| 2026-04-29 14:06 | 22.57839 | -77.38864 | 23099 ft | 320 kts | 183° |
| 2026-04-29 14:06 | 22.55806 | -77.38922 | 23100 ft | 320 kts | 183° |
| 2026-04-29 14:06 | 22.53516 | -77.38989 | 23092 ft | 320 kts | 183° |
| 2026-04-29 14:06 | 22.51392 | -77.39051 | 23094 ft | 320 kts | 183° |
| 2026-04-29 14:07 | 22.49169 | -77.39115 | 23095 ft | 320 kts | 183° |
| 2026-04-29 14:07 | 22.46944 | -77.39180 | 23090 ft | 320 kts | 183° |
| 2026-04-29 14:07 | 22.44716 | -77.39245 | 23100 ft | 320 kts | 183° |
| 2026-04-29 14:07 | 22.42486 | -77.39310 | 23103 ft | 320 kts | 183° |
| 2026-04-29 14:08 | 22.40265 | -77.39374 | 23092 ft | 320 kts | 183° |
| 2026-04-29 14:08 | 22.38082 | -77.39437 | 23097 ft | 320 kts | 183° |
| 2026-04-29 14:08 | 22.35900 | -77.39501 | 23095 ft | 319 kts | 183° |
| 2026-04-29 14:08 | 22.33767 | -77.39562 | 23091 ft | 319 kts | 183° |
| 2026-04-29 14:09 | 22.31610 | -77.39625 | 23093 ft | 319 kts | 183° |
| 2026-04-29 14:09 | 22.29385 | -77.39689 | 23097 ft | 319 kts | 183° |
| 2026-04-29 14:09 | 22.27265 | -77.39749 | 23099 ft | 319 kts | 183° |
| 2026-04-29 14:09 | 22.25032 | -77.39809 | 23091 ft | 319 kts | 183° |
| 2026-04-29 14:10 | 22.22809 | -77.39869 | 23091 ft | 318 kts | 183° |
| 2026-04-29 14:10 | 22.20606 | -77.39929 | 23092 ft | 318 kts | 183° |
| 2026-04-29 14:10 | 22.18397 | -77.39988 | 23097 ft | 318 kts | 183° |
| 2026-04-29 14:10 | 22.16937 | -77.40028 | 23094 ft | 318 kts | 183° |
| 2026-04-29 14:11 | 22.14256 | -77.40101 | 23090 ft | 318 kts | 183° |
| 2026-04-29 14:11 | 22.12545 | -77.40147 | 23089 ft | 318 kts | 183° |
| 2026-04-29 14:11 | 22.11017 | -77.40189 | 23093 ft | 318 kts | 183° |
| 2026-04-29 14:11 | 22.08885 | -77.40247 | 23092 ft | 317 kts | 183° |
| 2026-04-29 14:12 | 22.06722 | -77.40305 | 23087 ft | 317 kts | 183° |
| 2026-04-29 14:12 | 22.05287 | -77.40344 | 23095 ft | 317 kts | 183° |
| 2026-04-29 14:12 | 22.02644 | -77.40416 | 23089 ft | 317 kts | 183° |
| 2026-04-29 14:12 | 22.00575 | -77.40472 | 23091 ft | 317 kts | 183° |
| 2026-04-29 14:13 | 21.98297 | -77.40534 | 23088 ft | 317 kts | 183° |
| 2026-04-29 14:13 | 21.96841 | -77.40573 | 23093 ft | 316 kts | 183° |
| 2026-04-29 14:13 | 21.94773 | -77.40629 | 23089 ft | 316 kts | 183° |
| 2026-04-29 14:13 | 21.91941 | -77.40706 | 23092 ft | 316 kts | 183° |
| 2026-04-29 14:14 | 21.90783 | -77.40737 | 23091 ft | 316 kts | 183° |
| 2026-04-29 14:14 | 21.89037 | -77.40785 | 23083 ft | 316 kts | 183° |
| 2026-04-29 14:14 | 21.86850 | -77.40845 | 23087 ft | 316 kts | 183° |
| 2026-04-29 14:14 | 21.85712 | -77.40876 | 23089 ft | 315 kts | 183° |
| 2026-04-29 14:15 | 21.83548 | -77.40935 | 23086 ft | 315 kts | 183° |
| 2026-04-29 14:15 | 21.82800 | -77.40955 | 23088 ft | 315 kts | 183° |
| 2026-04-29 14:15 | 21.81656 | -77.40987 | 23093 ft | 315 kts | 184° |
| 2026-04-29 14:15 | 21.80872 | -77.41008 | 23087 ft | 315 kts | 183° |
| 2026-04-29 14:16 | 21.80548 | -77.41017 | 23091 ft | 315 kts | 183° |
| 2026-04-29 14:16 | 21.78780 | -77.41065 | 23085 ft | 315 kts | 183° |
| 2026-04-29 14:16 | 21.77052 | -77.41111 | 23084 ft | 315 kts | 183° |
| 2026-04-29 14:16 | 21.74974 | -77.41167 | 23089 ft | 316 kts | 184° |
| 2026-04-29 14:17 | 21.73230 | -77.41215 | 23085 ft | 316 kts | 184° |
| 2026-04-29 14:17 | 21.71569 | -77.41262 | 23086 ft | 316 kts | 184° |
| 2026-04-29 14:17 | 21.69734 | -77.41312 | 23088 ft | 315 kts | 184° |
| 2026-04-29 14:17 | 21.68093 | -77.41356 | 23083 ft | 315 kts | 184° |
| 2026-04-29 14:18 | 21.66591 | -77.41396 | 23092 ft | 315 kts | 184° |
| 2026-04-29 14:18 | 21.66339 | -77.41403 | 23090 ft | 315 kts | 184° |
| 2026-04-29 14:18 | 21.65975 | -77.41413 | 23087 ft | 315 kts | 184° |
| 2026-04-29 14:18 | 21.64505 | -77.41452 | 23085 ft | 315 kts | 184° |
| 2026-04-29 14:19 | 21.62863 | -77.41497 | 23081 ft | 315 kts | 184° |
| 2026-04-29 14:19 | 21.61124 | -77.41544 | 23084 ft | 315 kts | 184° |
| 2026-04-29 14:19 | 21.59493 | -77.41589 | 23085 ft | 315 kts | 184° |
| 2026-04-29 14:19 | 21.57450 | -77.41644 | 23082 ft | 315 kts | 184° |
| 2026-04-29 14:20 | 21.55756 | -77.41689 | 23086 ft | 315 kts | 184° |
| 2026-04-29 14:20 | 21.53910 | -77.41738 | 23086 ft | 315 kts | 184° |
| 2026-04-29 14:20 | 21.53054 | -77.41761 | 23081 ft | 315 kts | 184° |
| 2026-04-29 14:20 | 21.51395 | -77.41806 | 23091 ft | 314 kts | 184° |
| 2026-04-29 14:21 | 21.49747 | -77.41850 | 23084 ft | 314 kts | 184° |
| 2026-04-29 14:21 | 21.47675 | -77.41907 | 23083 ft | 314 kts | 184° |
| 2026-04-29 14:21 | 21.45475 | -77.41966 | 23084 ft | 314 kts | 184° |
| 2026-04-29 14:21 | 21.43284 | -77.42024 | 23083 ft | 314 kts | 184° |
| 2026-04-29 14:22 | 21.41092 | -77.42083 | 23083 ft | 314 kts | 184° |
| 2026-04-29 14:22 | 21.38932 | -77.42141 | 23082 ft | 314 kts | 184° |
| 2026-04-29 14:22 | 21.36721 | -77.42204 | 23080 ft | 314 kts | 184° |
| 2026-04-29 14:22 | 21.34541 | -77.42276 | 23081 ft | 314 kts | 184° |
| 2026-04-29 14:23 | 21.32349 | -77.42344 | 23081 ft | 314 kts | 184° |
| 2026-04-29 14:23 | 21.30163 | -77.42410 | 23084 ft | 314 kts | 184° |
| 2026-04-29 14:23 | 21.27991 | -77.42474 | 23083 ft | 314 kts | 184° |
| 2026-04-29 14:23 | 21.25805 | -77.42541 | 23079 ft | 314 kts | 184° |
| 2026-04-29 14:24 | 21.24023 | -77.42596 | 23081 ft | 314 kts | 184° |
| 2026-04-29 14:24 | 21.22350 | -77.42648 | 23078 ft | 314 kts | 184° |
| 2026-04-29 14:24 | 21.20279 | -77.42711 | 23080 ft | 313 kts | 184° |
| 2026-04-29 14:24 | 21.18422 | -77.42767 | 23082 ft | 314 kts | 184° |
| 2026-04-29 14:25 | 21.17083 | -77.42808 | 23080 ft | 314 kts | 184° |
| 2026-04-29 14:25 | 21.15988 | -77.42842 | 23078 ft | 314 kts | 184° |
| 2026-04-29 14:25 | 21.14297 | -77.42894 | 23079 ft | 313 kts | 184° |
| 2026-04-29 14:25 | 21.12199 | -77.42960 | 23078 ft | 313 kts | 184° |
| 2026-04-29 14:26 | 21.10788 | -77.43003 | 23078 ft | 313 kts | 184° |
| 2026-04-29 14:26 | 21.08605 | -77.43067 | 23080 ft | 313 kts | 184° |
| 2026-04-29 14:26 | 21.06453 | -77.43134 | 23077 ft | 313 kts | 184° |
| 2026-04-29 14:26 | 21.04304 | -77.43200 | 23075 ft | 313 kts | 184° |
| 2026-04-29 14:27 | 21.02122 | -77.43266 | 23076 ft | 313 kts | 184° |
| 2026-04-29 14:27 | 20.99944 | -77.43334 | 23079 ft | 313 kts | 184° |
| 2026-04-29 14:27 | 20.97770 | -77.43400 | 23079 ft | 312 kts | 184° |
| 2026-04-29 14:28 | 20.93425 | -77.43531 | 23078 ft | 312 kts | 184° |
| 2026-04-29 14:28 | 20.91254 | -77.43598 | 23078 ft | 312 kts | 184° |
| 2026-04-29 14:28 | 20.89088 | -77.43662 | 23076 ft | 311 kts | 184° |
| 2026-04-29 14:28 | 20.86916 | -77.43727 | 23073 ft | 311 kts | 184° |
| 2026-04-29 14:29 | 20.84749 | -77.43791 | 23075 ft | 311 kts | 184° |
| 2026-04-29 14:29 | 20.82612 | -77.43857 | 23072 ft | 311 kts | 184° |
| 2026-04-29 14:29 | 20.80447 | -77.43923 | 23073 ft | 311 kts | 184° |
| 2026-04-29 14:29 | 20.78277 | -77.43989 | 23074 ft | 311 kts | 184° |
| 2026-04-29 14:30 | 20.76110 | -77.44055 | 23070 ft | 311 kts | 184° |
| 2026-04-29 14:30 | 20.73947 | -77.44120 | 23070 ft | 311 kts | 184° |
| 2026-04-29 14:30 | 20.71785 | -77.44186 | 23069 ft | 311 kts | 184° |
| 2026-04-29 14:30 | 20.69623 | -77.44251 | 23072 ft | 311 kts | 184° |
| 2026-04-29 14:31 | 20.67459 | -77.44315 | 23068 ft | 311 kts | 184° |
| 2026-04-29 14:31 | 20.65297 | -77.44382 | 23068 ft | 310 kts | 185° |
| 2026-04-29 14:31 | 20.63140 | -77.44447 | 23066 ft | 310 kts | 185° |
| 2026-04-29 14:31 | 20.60987 | -77.44513 | 23064 ft | 309 kts | 185° |
| 2026-04-29 14:32 | 20.58838 | -77.44578 | 23066 ft | 309 kts | 185° |
| 2026-04-29 14:32 | 20.56717 | -77.44642 | 23066 ft | 309 kts | 185° |
| 2026-04-29 14:32 | 20.54571 | -77.44707 | 23067 ft | 308 kts | 185° |
| 2026-04-29 14:32 | 20.52430 | -77.44765 | 23066 ft | 308 kts | 184° |
| 2026-04-29 14:33 | 20.50282 | -77.44814 | 23067 ft | 308 kts | 184° |
| 2026-04-29 14:33 | 20.48137 | -77.44869 | 23064 ft | 308 kts | 184° |
| 2026-04-29 14:33 | 20.46007 | -77.44925 | 23066 ft | 307 kts | 184° |
| 2026-04-29 14:33 | 20.43852 | -77.44981 | 23063 ft | 307 kts | 184° |
| 2026-04-29 14:34 | 20.41720 | -77.45035 | 23064 ft | 307 kts | 185° |
| 2026-04-29 14:34 | 20.39588 | -77.45090 | 23065 ft | 307 kts | 185° |
| 2026-04-29 14:34 | 20.37479 | -77.45144 | 23063 ft | 306 kts | 185° |
| 2026-04-29 14:34 | 20.35348 | -77.45198 | 23065 ft | 306 kts | 185° |
| 2026-04-29 14:35 | 20.33219 | -77.45253 | 23062 ft | 306 kts | 185° |
| 2026-04-29 14:35 | 20.31096 | -77.45306 | 23065 ft | 305 kts | 185° |
| 2026-04-29 14:35 | 20.28967 | -77.45360 | 23065 ft | 305 kts | 185° |
| 2026-04-29 14:35 | 20.26845 | -77.45414 | 23064 ft | 305 kts | 185° |
| 2026-04-29 14:36 | 20.24723 | -77.45468 | 23064 ft | 305 kts | 185° |
| 2026-04-29 14:36 | 20.22603 | -77.45522 | 23065 ft | 305 kts | 185° |
| 2026-04-29 14:36 | 20.20485 | -77.45576 | 23066 ft | 304 kts | 185° |
| 2026-04-29 14:36 | 20.18375 | -77.45629 | 23064 ft | 304 kts | 185° |
| 2026-04-29 14:37 | 20.16260 | -77.45683 | 23064 ft | 304 kts | 185° |
| 2026-04-29 14:37 | 20.14143 | -77.45736 | 23065 ft | 304 kts | 185° |
| 2026-04-29 14:37 | 20.12104 | -77.45790 | 23065 ft | 305 kts | 185° |
| 2026-04-29 14:37 | 20.09957 | -77.45844 | 23065 ft | 305 kts | 185° |
| 2026-04-29 14:38 | 20.07810 | -77.45896 | 23063 ft | 304 kts | 185° |
| 2026-04-29 14:38 | 20.06349 | -77.45933 | 23060 ft | 304 kts | 185° |
| 2026-04-29 14:38 | 20.04412 | -77.45982 | 23060 ft | 304 kts | 185° |
| 2026-04-29 14:38 | 20.02610 | -77.46028 | 23059 ft | 304 kts | 185° |
| 2026-04-29 14:39 | 20.00464 | -77.46084 | 23057 ft | 304 kts | 185° |
| 2026-04-29 14:39 | 19.98350 | -77.46140 | 23060 ft | 304 kts | 185° |
| 2026-04-29 14:39 | 19.96239 | -77.46192 | 23062 ft | 304 kts | 185° |
| 2026-04-29 14:39 | 19.94136 | -77.46245 | 23058 ft | 303 kts | 185° |
| 2026-04-29 14:40 | 19.92107 | -77.46297 | 23059 ft | 303 kts | 185° |
| 2026-04-29 14:40 | 19.89989 | -77.46350 | 23061 ft | 303 kts | 185° |
| 2026-04-29 14:40 | 19.87885 | -77.46405 | 23060 ft | 303 kts | 185° |
| 2026-04-29 14:40 | 19.85969 | -77.46454 | 23066 ft | 302 kts | 185° |
| 2026-04-29 14:41 | 19.84478 | -77.46491 | 23059 ft | 302 kts | 185° |
| 2026-04-29 14:41 | 19.82904 | -77.46531 | 23059 ft | 302 kts | 185° |
| 2026-04-29 14:41 | 19.81163 | -77.46576 | 23058 ft | 301 kts | 185° |
| 2026-04-29 14:41 | 19.79502 | -77.46618 | 23055 ft | 301 kts | 185° |
| 2026-04-29 14:42 | 19.77999 | -77.46656 | 23056 ft | 301 kts | 185° |
| 2026-04-29 14:42 | 19.76238 | -77.46701 | 23058 ft | 300 kts | 185° |
| 2026-04-29 14:42 | 19.74142 | -77.46754 | 23054 ft | 300 kts | 185° |
| 2026-04-29 14:42 | 19.72057 | -77.46807 | 23056 ft | 300 kts | 185° |
| 2026-04-29 14:43 | 19.70100 | -77.46856 | 23055 ft | 300 kts | 185° |
| 2026-04-29 14:43 | 19.68066 | -77.46907 | 23052 ft | 299 kts | 185° |
| 2026-04-29 14:43 | 19.65985 | -77.46960 | 23054 ft | 299 kts | 185° |
| 2026-04-29 14:43 | 19.63921 | -77.47012 | 23056 ft | 299 kts | 185° |
| 2026-04-29 14:44 | 19.61825 | -77.47065 | 23053 ft | 299 kts | 185° |
| 2026-04-29 14:44 | 19.59783 | -77.47116 | 23051 ft | 299 kts | 185° |
| 2026-04-29 14:44 | 19.57687 | -77.47169 | 23050 ft | 299 kts | 185° |
| 2026-04-29 14:44 | 19.55682 | -77.47219 | 23052 ft | 299 kts | 185° |
| 2026-04-29 14:45 | 19.54090 | -77.47259 | 23055 ft | 299 kts | 185° |
| 2026-04-29 14:45 | 19.52257 | -77.47305 | 23052 ft | 298 kts | 185° |
| 2026-04-29 14:45 | 19.50763 | -77.47343 | 23056 ft | 298 kts | 185° |
| 2026-04-29 14:45 | 19.49659 | -77.47334 | 23055 ft | 299 kts | 181° |
| 2026-04-29 14:46 | 19.48330 | -77.47110 | 23046 ft | 303 kts | 171° |
| 2026-04-29 14:46 | 19.47239 | -77.46762 | 23052 ft | 304 kts | 165° |
| 2026-04-29 14:46 | 19.45527 | -77.46111 | 23055 ft | 304 kts | 165° |
| 2026-04-29 14:46 | 19.43524 | -77.45387 | 23055 ft | 304 kts | 165° |
| 2026-04-29 14:47 | 19.41600 | -77.44697 | 23052 ft | 304 kts | 165° |
| 2026-04-29 14:47 | 19.39529 | -77.43937 | 23054 ft | 304 kts | 165° |
| 2026-04-29 14:47 | 19.37526 | -77.43202 | 23050 ft | 304 kts | 165° |
| 2026-04-29 14:47 | 19.36175 | -77.42709 | 23053 ft | 304 kts | 165° |
| 2026-04-29 14:48 | 19.33518 | -77.41740 | 23055 ft | 305 kts | 165° |
| 2026-04-29 14:48 | 19.31516 | -77.41008 | 23053 ft | 305 kts | 165° |
| 2026-04-29 14:48 | 19.29517 | -77.40278 | 23050 ft | 305 kts | 165° |
| 2026-04-29 14:48 | 19.27575 | -77.39570 | 23054 ft | 305 kts | 165° |
| 2026-04-29 14:49 | 19.25592 | -77.38846 | 23051 ft | 305 kts | 165° |
| 2026-04-29 14:49 | 19.23589 | -77.38116 | 23053 ft | 305 kts | 165° |
| 2026-04-29 14:49 | 19.21628 | -77.37401 | 23051 ft | 305 kts | 165° |
| 2026-04-29 14:49 | 19.20532 | -77.37002 | 23047 ft | 305 kts | 165° |
| 2026-04-29 14:50 | 19.19128 | -77.36490 | 23051 ft | 304 kts | 165° |
| 2026-04-29 14:50 | 19.17465 | -77.35884 | 23052 ft | 304 kts | 165° |
| 2026-04-29 14:50 | 19.15887 | -77.35309 | 23047 ft | 304 kts | 165° |
| 2026-04-29 14:50 | 19.13959 | -77.34606 | 23048 ft | 304 kts | 165° |
| 2026-04-29 14:51 | 19.11969 | -77.33881 | 23049 ft | 304 kts | 165° |
| 2026-04-29 14:51 | 19.09961 | -77.33149 | 23049 ft | 304 kts | 165° |
| 2026-04-29 14:51 | 19.07962 | -77.32421 | 23048 ft | 304 kts | 165° |
| 2026-04-29 14:51 | 19.05962 | -77.31693 | 22981 ft | 305 kts | 165° |
| 2026-04-29 14:52 | 19.03939 | -77.30959 | 22801 ft | 309 kts | 165° |
| 2026-04-29 14:52 | 19.01897 | -77.30215 | 22621 ft | 311 kts | 165° |
| 2026-04-29 14:52 | 18.99852 | -77.29469 | 22442 ft | 311 kts | 165° |
| 2026-04-29 14:52 | 18.97804 | -77.28724 | 22265 ft | 311 kts | 165° |
| 2026-04-29 14:53 | 18.95754 | -77.27978 | 22087 ft | 311 kts | 165° |
| 2026-04-29 14:53 | 18.93706 | -77.27231 | 21910 ft | 312 kts | 165° |
| 2026-04-29 14:53 | 18.91656 | -77.26482 | 21734 ft | 312 kts | 165° |
| 2026-04-29 14:53 | 18.89600 | -77.25730 | 21559 ft | 312 kts | 165° |
| 2026-04-29 14:54 | 18.87549 | -77.24977 | 21384 ft | 312 kts | 165° |
| 2026-04-29 14:54 | 18.85495 | -77.24220 | 21213 ft | 313 kts | 165° |
| 2026-04-29 14:54 | 18.83444 | -77.23461 | 21042 ft | 313 kts | 165° |
| 2026-04-29 14:54 | 18.81385 | -77.22697 | 20822 ft | 313 kts | 165° |
| 2026-04-29 14:55 | 18.79327 | -77.21932 | 20463 ft | 314 kts | 164° |
| 2026-04-29 14:55 | 18.77271 | -77.21165 | 20107 ft | 314 kts | 164° |
| 2026-04-29 14:55 | 18.75207 | -77.20395 | 19677 ft | 315 kts | 164° |
| 2026-04-29 14:55 | 18.73166 | -77.19634 | 19226 ft | 316 kts | 163° |
| 2026-04-29 14:56 | 18.71090 | -77.18860 | 18769 ft | 317 kts | 163° |
| 2026-04-29 14:56 | 18.69011 | -77.18085 | 18323 ft | 318 kts | 163° |
| 2026-04-29 14:56 | 18.66924 | -77.17308 | 17814 ft | 318 kts | 163° |
| 2026-04-29 14:56 | 18.64845 | -77.16534 | 17306 ft | 317 kts | 163° |
| 2026-04-29 14:57 | 18.62769 | -77.15761 | 16805 ft | 316 kts | 163° |
| 2026-04-29 14:57 | 18.60730 | -77.14904 | 16302 ft | 318 kts | 154° |
| 2026-04-29 14:57 | 18.58904 | -77.13584 | 15729 ft | 320 kts | 146° |
| 2026-04-29 14:57 | 18.57136 | -77.12163 | 14908 ft | 317 kts | 147° |
| 2026-04-29 14:58 | 18.55289 | -77.10953 | 14105 ft | 309 kts | 154° |
| 2026-04-29 14:58 | 18.53368 | -77.10013 | 13253 ft | 301 kts | 158° |
| 2026-04-29 14:58 | 18.51472 | -77.09112 | 12378 ft | 298 kts | 156° |
| 2026-04-29 14:58 | 18.49646 | -77.08115 | 11531 ft | 294 kts | 153° |
| 2026-04-29 14:59 | 18.47832 | -77.07150 | 10706 ft | 291 kts | 156° |
| 2026-04-29 14:59 | 18.46007 | -77.06254 | 9902 ft | 288 kts | 155° |
| 2026-04-29 14:59 | 18.44194 | -77.05410 | 9017 ft | 283 kts | 163° |
| 2026-04-29 14:59 | 18.42275 | -77.05250 | 8151 ft | 269 kts | 183° |
| 2026-04-29 15:00 | 18.40517 | -77.05488 | 7318 ft | 243 kts | 185° |
| 2026-04-29 15:00 | 18.38889 | -77.05597 | 6734 ft | 230 kts | 178° |
| 2026-04-29 15:00 | 18.37302 | -77.05533 | 6569 ft | 228 kts | 175° |
| 2026-04-29 15:00 | 18.35706 | -77.05466 | 6593 ft | 232 kts | 176° |
| 2026-04-29 15:01 | 18.34085 | -77.05428 | 6667 ft | 235 kts | 176° |
| 2026-04-29 15:01 | 18.32438 | -77.05393 | 6742 ft | 238 kts | 176° |
| 2026-04-29 15:01 | 18.30789 | -77.05353 | 6817 ft | 237 kts | 177° |
| 2026-04-29 15:01 | 18.29141 | -77.05319 | 6890 ft | 236 kts | 177° |
| 2026-04-29 15:02 | 18.27480 | -77.05278 | 6951 ft | 240 kts | 176° |
| 2026-04-29 15:02 | 18.25815 | -77.05230 | 7024 ft | 239 kts | 176° |
| 2026-04-29 15:02 | 18.24147 | -77.05193 | 7023 ft | 239 kts | 176° |
| 2026-04-29 15:02 | 18.22502 | -77.05146 | 7018 ft | 239 kts | 176° |
| 2026-04-29 15:03 | 18.20845 | -77.05106 | 7026 ft | 239 kts | 176° |
| 2026-04-29 15:03 | 18.19160 | -77.05074 | 7023 ft | 242 kts | 176° |
| 2026-04-29 15:03 | 18.18024 | -77.05050 | 7010 ft | 242 kts | 176° |
| 2026-04-29 15:03 | 18.15800 | -77.04980 | 6740 ft | 240 kts | 175° |
| 2026-04-29 15:04 | 18.14676 | -77.04948 | 6591 ft | 238 kts | 176° |
| 2026-04-29 15:04 | 18.13024 | -77.04916 | 6383 ft | 237 kts | 176° |
| 2026-04-29 15:04 | 18.11378 | -77.04881 | 6166 ft | 236 kts | 176° |
| 2026-04-29 15:04 | 18.09733 | -77.04842 | 5906 ft | 236 kts | 176° |
| 2026-04-29 15:05 | 18.08084 | -77.04793 | 5577 ft | 237 kts | 174° |
| 2026-04-29 15:05 | 18.06505 | -77.04437 | 4957 ft | 234 kts | 157° |
| 2026-04-29 15:05 | 18.05133 | -77.03638 | 4197 ft | 220 kts | 141° |
| 2026-04-29 15:05 | 18.04063 | -77.02536 | 3448 ft | 213 kts | 126° |
| 2026-04-29 15:06 | 18.03299 | -77.01208 | 2711 ft | 209 kts | 112° |
| 2026-04-29 15:06 | 18.02739 | -76.99829 | 2394 ft | 200 kts | 111° |
| 2026-04-29 15:06 | 18.02162 | -76.98531 | 2212 ft | 193 kts | 114° |
| 2026-04-29 15:06 | 18.01562 | -76.97247 | 2228 ft | 198 kts | 112° |
| 2026-04-29 15:07 | 18.00999 | -76.95938 | 2234 ft | 194 kts | 111° |
| 2026-04-29 15:07 | 18.00453 | -76.94658 | 2224 ft | 192 kts | 112° |
| 2026-04-29 15:07 | 17.99911 | -76.93380 | 2191 ft | 190 kts | 110° |
| 2026-04-29 15:07 | 17.99350 | -76.92093 | 2237 ft | 196 kts | 113° |
| 2026-04-29 15:08 | 17.98758 | -76.90784 | 2147 ft | 198 kts | 112° |
| 2026-04-29 15:08 | 17.98160 | -76.89459 | 1928 ft | 202 kts | 114° |
| 2026-04-29 15:08 | 17.97559 | -76.88149 | 1677 ft | 195 kts | 114° |
| 2026-04-29 15:08 | 17.97019 | -76.86899 | 1436 ft | 180 kts | 114° |
| 2026-04-29 15:09 | 17.96521 | -76.85763 | 1224 ft | 162 kts | 116° |
| 2026-04-29 15:09 | 17.96103 | -76.84813 | 1029 ft | 132 kts | 114° |
| 2026-04-29 15:09 | 17.95763 | -76.84021 | 865 ft | 107 kts | 116° |
| 2026-04-29 15:09 | 17.95462 | -76.83338 | 729 ft | 101 kts | 115° |
| 2026-04-29 15:10 | 17.95172 | -76.82669 | 592 ft | 101 kts | 116° |
| 2026-04-29 15:10 | 17.94889 | -76.82017 | 479 ft | 96 kts | 116° |
| 2026-04-29 15:10 | 17.94616 | -76.81388 | 367 ft | 96 kts | 114° |
| 2026-04-29 15:10 | 17.94354 | -76.80735 | 237 ft | 98 kts | 116° |
| 2026-04-29 15:11 | 17.94080 | -76.80064 | 84 ft | 99 kts | 116° |
| 2026-04-29 15:11 | 17.93834 | -76.79445 | 11 ft | 83 kts | 117° |
| 2026-04-29 15:11 | 17.93646 | -76.78968 | 8 ft | 60 kts | 111° |
| 2026-04-29 15:11 | 17.93510 | -76.78614 | 7 ft | 45 kts | 112° |
| 2026-04-29 15:12 | 17.93412 | -76.78336 | 9 ft | 38 kts | 98° |
| 2026-04-29 15:12 | 17.93411 | -76.78109 | 9 ft | 24 kts | 76° |
| 2026-04-29 15:12 | 17.93426 | -76.77957 | 8 ft | 16 kts | 118° |
| 2026-04-29 15:12 | 17.93381 | -76.77852 | 8 ft | 16 kts | 110° |
| 2026-04-29 15:13 | 17.93405 | -76.77764 | 8 ft | 15 kts | 19° |
| 2026-04-29 15:13 | 17.93502 | -76.77713 | 7 ft | 17 kts | 37° |
| 2026-04-29 15:13 | 17.93587 | -76.77623 | 7 ft | 18 kts | 50° |
| 2026-04-29 15:13 | 17.93628 | -76.77526 | 7 ft | 8 kts | 114° |
| 2026-04-29 15:14 | 17.93611 | -76.77505 | 7 ft | 4 kts | 257° |
| 2026-04-29 15:14 | 17.93611 | -76.77511 | 7 ft | 0 kts | 287° |